sensor_id;sensor_type;location;lat;lon;timestamp;temperature;humidity
69162;DHT22;56269;51.738;21.652;2023-02-01T00:00:22;1.38;99.99
69162;DHT22;56269;51.738;21.652;2023-02-01T00:03:08;1.38;99.99
69162;DHT22;56269;51.738;21.652;2023-02-01T00:05:34;1.39;99.99
69162;DHT22;56269;51.738;21.652;2023-02-01T00:08:00;1.38;99.99
69162;DHT22;56269;51.738;21.652;2023-02-01T00:10:26;1.48;99.99
69162;DHT22;56269;51.738;21.652;2023-02-01T00:12:53;1.51;99.99
69162;DHT22;56269;51.738;21.652;2023-02-01T00:15:19;1.51;99.99
69162;DHT22;56269;51.738;21.652;2023-02-01T00:17:46;1.54;99.99
69162;DHT22;56269;51.738;21.652;2023-02-01T00:20:12;1.56;99.99
69162;DHT22;56269;51.738;21.652;2023-02-01T00:22:38;1.59;99.99
69162;DHT22;56269;51.738;21.652;2023-02-01T00:25:05;1.60;99.99
69162;DHT22;56269;51.738;21.652;2023-02-01T00:27:31;1.49;99.99
69162;DHT22;56269;51.738;21.652;2023-02-01T00:29:57;1.49;99.99
69162;DHT22;56269;51.738;21.652;2023-02-01T00:32:24;1.41;99.99
69162;DHT22;56269;51.738;21.652;2023-02-01T00:34:50;1.30;99.99
69162;DHT22;56269;51.738;21.652;2023-02-01T00:37:16;1.18;99.99
69162;DHT22;56269;51.738;21.652;2023-02-01T00:39:42;1.11;99.99
69162;DHT22;56269;51.738;21.652;2023-02-01T00:42:09;1.08;99.99
69162;DHT22;56269;51.738;21.652;2023-02-01T00:44:35;1.03;99.99
69162;DHT22;56269;51.738;21.652;2023-02-01T00:47:02;1.03;99.99
69162;DHT22;56269;51.738;21.652;2023-02-01T00:49:28;1.05;99.99
69162;DHT22;56269;51.738;21.652;2023-02-01T00:51:55;1.04;99.99
69162;DHT22;56269;51.738;21.652;2023-02-01T00:54:21;1.03;99.99
69162;DHT22;56269;51.738;21.652;2023-02-01T00:56:47;1.00;99.99
69162;DHT22;56269;51.738;21.652;2023-02-01T00:59:13;1.00;99.99
69162;DHT22;56269;51.738;21.652;2023-02-01T01:01:40;0.93;99.99
69162;DHT22;56269;51.738;21.652;2023-02-01T01:04:06;0.98;99.99
69162;DHT22;56269;51.738;21.652;2023-02-01T01:06:33;0.93;99.99
69162;DHT22;56269;51.738;21.652;2023-02-01T01:09:03;1.03;99.99
69162;DHT22;56269;51.738;21.652;2023-02-01T01:11:32;1.00;99.99
69162;DHT22;56269;51.738;21.652;2023-02-01T01:13:59;1.08;99.99
69162;DHT22;56269;51.738;21.652;2023-02-01T01:16:27;1.20;99.99
69162;DHT22;56269;51.738;21.652;2023-02-01T01:18:54;1.21;99.99
69162;DHT22;56269;51.738;21.652;2023-02-01T01:21:21;1.24;99.99
69162;DHT22;56269;51.738;21.652;2023-02-01T01:23:47;1.34;99.99
69162;DHT22;56269;51.738;21.652;2023-02-01T01:26:20;1.34;99.99
69162;DHT22;56269;51.738;21.652;2023-02-01T01:28:47;1.41;99.99
69162;DHT22;56269;51.738;21.652;2023-02-01T01:31:15;1.39;99.99
69162;DHT22;56269;51.738;21.652;2023-02-01T01:33:41;1.39;99.99
69162;DHT22;56269;51.738;21.652;2023-02-01T01:36:10;1.52;99.99
69162;DHT22;56269;51.738;21.652;2023-02-01T01:38:39;1.52;99.99
69162;DHT22;56269;51.738;21.652;2023-02-01T01:41:06;1.56;99.99
69162;DHT22;56269;51.738;21.652;2023-02-01T01:46:41;1.82;99.99
69162;DHT22;56269;51.738;21.652;2023-02-01T01:49:18;1.86;99.99
69162;DHT22;56269;51.738;21.652;2023-02-01T01:51:58;1.92;99.99
69162;DHT22;56269;51.738;21.652;2023-02-01T01:54:33;2.10;99.99
69162;DHT22;56269;51.738;21.652;2023-02-01T01:57:07;2.14;99.99
69162;DHT22;56269;51.738;21.652;2023-02-01T01:59:37;2.23;99.99
69162;DHT22;56269;51.738;21.652;2023-02-01T02:02:04;2.26;99.99
69162;DHT22;56269;51.738;21.652;2023-02-01T02:04:32;2.20;99.99
69162;DHT22;56269;51.738;21.652;2023-02-01T02:07:09;2.20;99.90
69162;DHT22;56269;51.738;21.652;2023-02-01T02:09:37;2.21;99.60
69162;DHT22;56269;51.738;21.652;2023-02-01T02:12:04;2.30;99.52
69162;DHT22;56269;51.738;21.652;2023-02-01T02:14:31;2.26;99.55
69162;DHT22;56269;51.738;21.652;2023-02-01T02:17:06;2.24;99.46
69162;DHT22;56269;51.738;21.652;2023-02-01T02:20:01;2.23;99.57
69162;DHT22;56269;51.738;21.652;2023-02-01T02:36:53;2.42;94.88
69162;DHT22;56269;51.738;21.652;2023-02-01T02:39:38;2.37;95.13
69162;DHT22;56269;51.738;21.652;2023-02-01T02:42:30;2.33;95.49
69162;DHT22;56269;51.738;21.652;2023-02-01T02:45:41;2.21;96.14
69162;DHT22;56269;51.738;21.652;2023-02-01T02:54:13;2.30;95.95
69162;DHT22;56269;51.738;21.652;2023-02-01T02:56:59;2.18;96.58
69162;DHT22;56269;51.738;21.652;2023-02-01T02:59:47;2.17;96.97
69162;DHT22;56269;51.738;21.652;2023-02-01T03:02:33;2.18;97.24
69162;DHT22;56269;51.738;21.652;2023-02-01T03:05:18;2.21;97.82
69162;DHT22;56269;51.738;21.652;2023-02-01T03:08:08;2.26;97.22
69162;DHT22;56269;51.738;21.652;2023-02-01T03:21:38;2.13;98.95
69162;DHT22;56269;51.738;21.652;2023-02-01T03:24:17;2.11;98.98
69162;DHT22;56269;51.738;21.652;2023-02-01T03:26:50;2.07;99.22
69162;DHT22;56269;51.738;21.652;2023-02-01T03:29:22;2.10;99.17
69162;DHT22;56269;51.738;21.652;2023-02-01T03:31:50;2.09;98.82
69162;DHT22;56269;51.738;21.652;2023-02-01T03:34:16;2.14;98.43
69162;DHT22;56269;51.738;21.652;2023-02-01T03:36:50;2.07;98.96
69162;DHT22;56269;51.738;21.652;2023-02-01T03:42:18;2.11;98.36
69162;DHT22;56269;51.738;21.652;2023-02-01T03:44:57;2.07;98.20
69162;DHT22;56269;51.738;21.652;2023-02-01T03:47:27;2.26;96.90
69162;DHT22;56269;51.738;21.652;2023-02-01T03:49:58;2.09;98.19
69162;DHT22;56269;51.738;21.652;2023-02-01T03:52:39;2.05;98.40
69162;DHT22;56269;51.738;21.652;2023-02-01T03:55:07;2.03;98.45
69162;DHT22;56269;51.738;21.652;2023-02-01T03:57:38;2.11;97.82
69162;DHT22;56269;51.738;21.652;2023-02-01T04:00:08;2.14;97.52
69162;DHT22;56269;51.738;21.652;2023-02-01T04:02:36;2.06;98.01
69162;DHT22;56269;51.738;21.652;2023-02-01T04:05:02;2.07;98.08
69162;DHT22;56269;51.738;21.652;2023-02-01T04:07:28;2.07;97.90
69162;DHT22;56269;51.738;21.652;2023-02-01T04:09:54;2.11;97.75
69162;DHT22;56269;51.738;21.652;2023-02-01T04:12:21;2.10;97.82
69162;DHT22;56269;51.738;21.652;2023-02-01T04:14:47;2.16;97.16
69162;DHT22;56269;51.738;21.652;2023-02-01T04:17:13;2.17;97.19
69162;DHT22;56269;51.738;21.652;2023-02-01T04:19:39;2.21;96.82
69162;DHT22;56269;51.738;21.652;2023-02-01T04:22:06;2.20;97.06
69162;DHT22;56269;51.738;21.652;2023-02-01T04:24:32;2.23;96.69
69162;DHT22;56269;51.738;21.652;2023-02-01T04:26:58;2.21;96.65
69162;DHT22;56269;51.738;21.652;2023-02-01T04:29:24;2.21;96.74
69162;DHT22;56269;51.738;21.652;2023-02-01T04:31:50;2.27;96.47
69162;DHT22;56269;51.738;21.652;2023-02-01T04:34:17;2.30;96.05
69162;DHT22;56269;51.738;21.652;2023-02-01T04:36:43;2.31;95.99
69162;DHT22;56269;51.738;21.652;2023-02-01T04:39:09;2.30;96.30
69162;DHT22;56269;51.738;21.652;2023-02-01T04:41:36;2.23;96.33
69162;DHT22;56269;51.738;21.652;2023-02-01T04:44:02;2.27;96.38
69162;DHT22;56269;51.738;21.652;2023-02-01T04:46:28;2.27;96.64
69162;DHT22;56269;51.738;21.652;2023-02-01T04:48:54;2.23;96.60
69162;DHT22;56269;51.738;21.652;2023-02-01T04:51:21;2.27;96.20
69162;DHT22;56269;51.738;21.652;2023-02-01T04:53:47;2.30;96.09
69162;DHT22;56269;51.738;21.652;2023-02-01T04:56:14;2.30;96.22
69162;DHT22;56269;51.738;21.652;2023-02-01T04:58:40;2.31;95.68
69162;DHT22;56269;51.738;21.652;2023-02-01T05:01:06;2.33;95.42
69162;DHT22;56269;51.738;21.652;2023-02-01T05:03:33;2.38;95.17
69162;DHT22;56269;51.738;21.652;2023-02-01T05:06:00;2.38;95.31
69162;DHT22;56269;51.738;21.652;2023-02-01T05:08:27;2.38;95.23
69162;DHT22;56269;51.738;21.652;2023-02-01T05:10:54;2.40;95.07
69162;DHT22;56269;51.738;21.652;2023-02-01T05:13:20;2.36;95.36
69162;DHT22;56269;51.738;21.652;2023-02-01T05:16:06;2.36;95.07
69162;DHT22;56269;51.738;21.652;2023-02-01T05:18:32;2.41;94.72
69162;DHT22;56269;51.738;21.652;2023-02-01T05:20:59;2.37;94.89
69162;DHT22;56269;51.738;21.652;2023-02-01T05:23:25;2.36;94.93
69162;DHT22;56269;51.738;21.652;2023-02-01T05:25:51;2.28;95.32
69162;DHT22;56269;51.738;21.652;2023-02-01T05:28:17;2.40;94.63
69162;DHT22;56269;51.738;21.652;2023-02-01T05:30:44;2.40;94.57
69162;DHT22;56269;51.738;21.652;2023-02-01T05:33:10;2.36;94.66
69162;DHT22;56269;51.738;21.652;2023-02-01T05:35:36;2.37;94.38
69162;DHT22;56269;51.738;21.652;2023-02-01T05:38:02;2.28;94.73
69162;DHT22;56269;51.738;21.652;2023-02-01T05:40:29;2.37;94.06
69162;DHT22;56269;51.738;21.652;2023-02-01T05:42:55;2.47;93.88
69162;DHT22;56269;51.738;21.652;2023-02-01T05:45:21;2.47;93.78
69162;DHT22;56269;51.738;21.652;2023-02-01T05:47:47;2.45;93.88
69162;DHT22;56269;51.738;21.652;2023-02-01T05:50:14;2.49;93.52
69162;DHT22;56269;51.738;21.652;2023-02-01T05:52:40;2.47;93.30
69162;DHT22;56269;51.738;21.652;2023-02-01T05:55:07;2.49;92.99
69162;DHT22;56269;51.738;21.652;2023-02-01T05:57:33;2.55;92.45
69162;DHT22;56269;51.738;21.652;2023-02-01T05:59:59;2.61;92.32
69162;DHT22;56269;51.738;21.652;2023-02-01T06:02:26;2.59;92.12
69162;DHT22;56269;51.738;21.652;2023-02-01T06:04:52;2.57;92.14
69162;DHT22;56269;51.738;21.652;2023-02-01T06:07:18;2.58;92.11
69162;DHT22;56269;51.738;21.652;2023-02-01T06:09:45;2.54;92.34
69162;DHT22;56269;51.738;21.652;2023-02-01T06:12:11;2.59;91.98
69162;DHT22;56269;51.738;21.652;2023-02-01T06:14:38;2.57;91.80
69162;DHT22;56269;51.738;21.652;2023-02-01T06:17:04;2.54;92.17
69162;DHT22;56269;51.738;21.652;2023-02-01T06:19:32;2.54;92.26
69162;DHT22;56269;51.738;21.652;2023-02-01T06:21:58;2.57;91.72
69162;DHT22;56269;51.738;21.652;2023-02-01T06:24:24;2.55;91.85
69162;DHT22;56269;51.738;21.652;2023-02-01T06:26:50;2.55;92.05
69162;DHT22;56269;51.738;21.652;2023-02-01T06:29:17;2.57;92.41
69162;DHT22;56269;51.738;21.652;2023-02-01T06:31:43;2.42;93.26
69162;DHT22;56269;51.738;21.652;2023-02-01T06:34:09;2.37;93.80
69162;DHT22;56269;51.738;21.652;2023-02-01T06:36:35;2.36;94.03
69162;DHT22;56269;51.738;21.652;2023-02-01T06:39:02;2.33;94.42
69162;DHT22;56269;51.738;21.652;2023-02-01T06:41:28;2.34;94.52
69162;DHT22;56269;51.738;21.652;2023-02-01T06:43:55;2.34;94.49
69162;DHT22;56269;51.738;21.652;2023-02-01T06:46:21;2.23;95.16
69162;DHT22;56269;51.738;21.652;2023-02-01T06:48:47;2.23;95.22
69162;DHT22;56269;51.738;21.652;2023-02-01T06:51:25;2.30;94.74
69162;DHT22;56269;51.738;21.652;2023-02-01T06:53:52;2.31;94.90
69162;DHT22;56269;51.738;21.652;2023-02-01T06:56:18;2.34;94.65
69162;DHT22;56269;51.738;21.652;2023-02-01T06:58:45;2.34;94.72
69162;DHT22;56269;51.738;21.652;2023-02-01T07:01:12;2.38;94.47
69162;DHT22;56269;51.738;21.652;2023-02-01T07:03:38;2.44;94.29
69162;DHT22;56269;51.738;21.652;2023-02-01T07:06:05;2.49;94.40
69162;DHT22;56269;51.738;21.652;2023-02-01T07:08:33;2.54;94.20
69162;DHT22;56269;51.738;21.652;2023-02-01T07:11:08;2.55;94.00
69162;DHT22;56269;51.738;21.652;2023-02-01T07:13:35;2.57;93.66
69162;DHT22;56269;51.738;21.652;2023-02-01T07:16:02;2.54;94.03
69162;DHT22;56269;51.738;21.652;2023-02-01T07:18:29;2.54;93.74
69162;DHT22;56269;51.738;21.652;2023-02-01T07:20:56;2.48;93.95
69162;DHT22;56269;51.738;21.652;2023-02-01T07:23:23;2.52;93.51
69162;DHT22;56269;51.738;21.652;2023-02-01T07:25:56;2.55;93.73
69162;DHT22;56269;51.738;21.652;2023-02-01T07:28:24;2.61;93.30
69162;DHT22;56269;51.738;21.652;2023-02-01T07:30:50;2.72;92.63
69162;DHT22;56269;51.738;21.652;2023-02-01T07:33:21;2.88;92.45
69162;DHT22;56269;51.738;21.652;2023-02-01T07:35:48;2.89;92.02
69162;DHT22;56269;51.738;21.652;2023-02-01T07:38:15;2.89;91.85
69162;DHT22;56269;51.738;21.652;2023-02-01T07:40:42;2.89;92.15
69162;DHT22;56269;51.738;21.652;2023-02-01T07:43:09;2.87;92.11
69162;DHT22;56269;51.738;21.652;2023-02-01T07:45:38;2.78;92.73
69162;DHT22;56269;51.738;21.652;2023-02-01T07:48:04;2.78;92.57
69162;DHT22;56269;51.738;21.652;2023-02-01T07:50:31;2.78;92.50
69162;DHT22;56269;51.738;21.652;2023-02-01T07:53:00;2.75;92.61
69162;DHT22;56269;51.738;21.652;2023-02-01T07:55:27;2.74;92.88
69162;DHT22;56269;51.738;21.652;2023-02-01T07:57:57;2.74;92.63
69162;DHT22;56269;51.738;21.652;2023-02-01T08:00:23;2.77;92.56
69162;DHT22;56269;51.738;21.652;2023-02-01T08:03:08;2.74;92.78
69162;DHT22;56269;51.738;21.652;2023-02-01T08:05:34;2.68;93.03
69162;DHT22;56269;51.738;21.652;2023-02-01T08:08:02;2.68;92.65
69162;DHT22;56269;51.738;21.652;2023-02-01T08:10:29;2.75;92.17
69162;DHT22;56269;51.738;21.652;2023-02-01T08:12:58;2.77;92.10
69162;DHT22;56269;51.738;21.652;2023-02-01T08:15:27;2.77;92.32
69162;DHT22;56269;51.738;21.652;2023-02-01T08:17:53;2.78;92.25
69162;DHT22;56269;51.738;21.652;2023-02-01T08:20:23;2.82;91.53
69162;DHT22;56269;51.738;21.652;2023-02-01T08:22:50;2.88;91.27
69162;DHT22;56269;51.738;21.652;2023-02-01T08:25:16;2.95;90.69
69162;DHT22;56269;51.738;21.652;2023-02-01T08:27:43;3.03;90.28
69162;DHT22;56269;51.738;21.652;2023-02-01T08:30:09;3.03;90.38
69162;DHT22;56269;51.738;21.652;2023-02-01T08:32:36;2.99;90.67
69162;DHT22;56269;51.738;21.652;2023-02-01T08:35:03;2.99;90.37
69162;DHT22;56269;51.738;21.652;2023-02-01T08:37:30;3.02;90.27
69162;DHT22;56269;51.738;21.652;2023-02-01T08:39:56;3.02;90.47
69162;DHT22;56269;51.738;21.652;2023-02-01T08:42:23;2.99;90.87
69162;DHT22;56269;51.738;21.652;2023-02-01T08:45:08;3.06;90.32
69162;DHT22;56269;51.738;21.652;2023-02-01T08:47:35;3.10;90.13
69162;DHT22;56269;51.738;21.652;2023-02-01T08:50:01;3.10;90.08
69162;DHT22;56269;51.738;21.652;2023-02-01T08:52:27;3.12;90.10
69162;DHT22;56269;51.738;21.652;2023-02-01T08:54:53;3.15;90.21
69162;DHT22;56269;51.738;21.652;2023-02-01T08:57:20;3.13;90.11
69162;DHT22;56269;51.738;21.652;2023-02-01T08:59:46;3.12;90.24
69162;DHT22;56269;51.738;21.652;2023-02-01T09:02:14;3.09;90.70
69162;DHT22;56269;51.738;21.652;2023-02-01T09:04:41;3.03;91.31
69162;DHT22;56269;51.738;21.652;2023-02-01T09:07:10;2.96;91.90
69162;DHT22;56269;51.738;21.652;2023-02-01T09:09:38;2.91;92.55
69162;DHT22;56269;51.738;21.652;2023-02-01T09:12:05;2.91;93.32
69162;DHT22;56269;51.738;21.652;2023-02-01T09:14:31;2.84;93.49
69162;DHT22;56269;51.738;21.652;2023-02-01T09:16:57;2.75;94.55
69162;DHT22;56269;51.738;21.652;2023-02-01T09:19:23;2.65;95.40
69162;DHT22;56269;51.738;21.652;2023-02-01T09:21:50;2.55;96.05
69162;DHT22;56269;51.738;21.652;2023-02-01T09:24:16;2.51;96.52
69162;DHT22;56269;51.738;21.652;2023-02-01T09:26:43;2.54;96.46
69162;DHT22;56269;51.738;21.652;2023-02-01T09:29:09;2.48;97.10
69162;DHT22;56269;51.738;21.652;2023-02-01T09:31:39;2.48;97.46
69162;DHT22;56269;51.738;21.652;2023-02-01T09:34:06;2.54;96.96
69162;DHT22;56269;51.738;21.652;2023-02-01T09:36:34;2.65;96.82
69162;DHT22;56269;51.738;21.652;2023-02-01T09:39:00;2.74;96.91
69162;DHT22;56269;51.738;21.652;2023-02-01T09:41:38;2.82;96.51
69162;DHT22;56269;51.738;21.652;2023-02-01T09:44:38;2.92;96.22
69162;DHT22;56269;51.738;21.652;2023-02-01T09:47:17;3.00;95.42
69162;DHT22;56269;51.738;21.652;2023-02-01T09:50:18;3.05;95.52
69162;DHT22;56269;51.738;21.652;2023-02-01T09:52:57;3.16;94.75
69162;DHT22;56269;51.738;21.652;2023-02-01T09:55:43;3.27;94.24
69162;DHT22;56269;51.738;21.652;2023-02-01T09:58:30;3.24;93.71
69162;DHT22;56269;51.738;21.652;2023-02-01T10:01:02;3.22;93.38
69162;DHT22;56269;51.738;21.652;2023-02-01T10:03:34;3.26;93.21
69162;DHT22;56269;51.738;21.652;2023-02-01T10:06:16;3.23;92.82
69162;DHT22;56269;51.738;21.652;2023-02-01T10:08:57;3.27;92.05
69162;DHT22;56269;51.738;21.652;2023-02-01T10:14:10;3.26;91.91
69162;DHT22;56269;51.738;21.652;2023-02-01T10:17:04;3.27;91.10
69162;DHT22;56269;51.738;21.652;2023-02-01T10:22:39;3.23;91.76
69162;DHT22;56269;51.738;21.652;2023-02-01T10:27:54;3.27;91.86
69162;DHT22;56269;51.738;21.652;2023-02-01T10:30:33;3.36;91.16
69162;DHT22;56269;51.738;21.652;2023-02-01T10:33:17;3.59;90.78
69162;DHT22;56269;51.738;21.652;2023-02-01T10:35:45;3.78;88.47
69162;DHT22;56269;51.738;21.652;2023-02-01T10:38:32;3.88;88.91
69162;DHT22;56269;51.738;21.652;2023-02-01T10:41:03;3.97;89.09
69162;DHT22;56269;51.738;21.652;2023-02-01T10:43:30;4.04;88.39
69162;DHT22;56269;51.738;21.652;2023-02-01T10:45:57;4.01;87.43
69162;DHT22;56269;51.738;21.652;2023-02-01T10:48:23;4.15;87.79
69162;DHT22;56269;51.738;21.652;2023-02-01T10:51:02;4.23;87.21
69162;DHT22;56269;51.738;21.652;2023-02-01T10:53:45;4.35;86.02
69162;DHT22;56269;51.738;21.652;2023-02-01T10:56:13;4.35;85.92
69162;DHT22;56269;51.738;21.652;2023-02-01T10:58:46;4.29;86.88
69162;DHT22;56269;51.738;21.652;2023-02-01T11:01:34;4.14;87.51
69162;DHT22;56269;51.738;21.652;2023-02-01T11:04:05;4.05;88.85
69162;DHT22;56269;51.738;21.652;2023-02-01T11:06:40;4.04;88.19
69162;DHT22;56269;51.738;21.652;2023-02-01T11:14:38;3.97;89.17
69162;DHT22;56269;51.738;21.652;2023-02-01T11:19:44;4.02;88.96
69162;DHT22;56269;51.738;21.652;2023-02-01T11:22:12;4.06;88.60
69162;DHT22;56269;51.738;21.652;2023-02-01T11:24:40;4.08;88.17
69162;DHT22;56269;51.738;21.652;2023-02-01T11:27:17;4.04;89.05
69162;DHT22;56269;51.738;21.652;2023-02-01T11:29:53;4.09;89.07
69162;DHT22;56269;51.738;21.652;2023-02-01T11:32:23;4.18;87.92
69162;DHT22;56269;51.738;21.652;2023-02-01T11:34:54;4.09;87.84
69162;DHT22;56269;51.738;21.652;2023-02-01T11:37:28;4.14;88.21
69162;DHT22;56269;51.738;21.652;2023-02-01T11:40:01;4.21;87.44
69162;DHT22;56269;51.738;21.652;2023-02-01T11:42:28;4.22;87.97
69162;DHT22;56269;51.738;21.652;2023-02-01T11:45:27;4.22;88.04
69162;DHT22;56269;51.738;21.652;2023-02-01T11:47:55;4.19;87.51
69162;DHT22;56269;51.738;21.652;2023-02-01T11:58:45;4.05;89.10
69162;DHT22;56269;51.738;21.652;2023-02-01T12:06:35;3.91;89.35
69162;DHT22;56269;51.738;21.652;2023-02-01T12:12:12;3.74;90.64
69162;DHT22;56269;51.738;21.652;2023-02-01T12:20:21;3.64;91.44
69162;DHT22;56269;51.738;21.652;2023-02-01T12:23:25;3.67;91.48
69162;DHT22;56269;51.738;21.652;2023-02-01T12:34:54;3.69;91.98
69162;DHT22;56269;51.738;21.652;2023-02-01T12:37:50;3.67;91.13
69162;DHT22;56269;51.738;21.652;2023-02-01T12:40:54;3.61;92.04
69162;DHT22;56269;51.738;21.652;2023-02-01T12:43:46;3.60;92.07
69162;DHT22;56269;51.738;21.652;2023-02-01T12:46:23;3.66;92.23
69162;DHT22;56269;51.738;21.652;2023-02-01T12:51:42;3.75;92.24
69162;DHT22;56269;51.738;21.652;2023-02-01T12:54:20;3.73;91.93
69162;DHT22;56269;51.738;21.652;2023-02-01T12:56:56;3.75;92.00
69162;DHT22;56269;51.738;21.652;2023-02-01T12:59:39;3.80;91.45
69162;DHT22;56269;51.738;21.652;2023-02-01T13:05:20;3.81;91.29
69162;DHT22;56269;51.738;21.652;2023-02-01T13:12:56;3.70;92.60
69162;DHT22;56269;51.738;21.652;2023-02-01T13:15:28;3.63;92.84
69162;DHT22;56269;51.738;21.652;2023-02-01T13:18:00;3.59;92.95
69162;DHT22;56269;51.738;21.652;2023-02-01T13:20:48;3.53;93.53
69162;DHT22;56269;51.738;21.652;2023-02-01T13:25:51;3.46;94.28
69162;DHT22;56269;51.738;21.652;2023-02-01T13:28:56;3.43;94.80
69162;DHT22;56269;51.738;21.652;2023-02-01T13:42:20;3.39;95.47
69162;DHT22;56269;51.738;21.652;2023-02-01T13:44:51;3.40;95.38
69162;DHT22;56269;51.738;21.652;2023-02-01T13:47:31;3.46;95.29
69162;DHT22;56269;51.738;21.652;2023-02-01T13:50:42;3.51;94.83
69162;DHT22;56269;51.738;21.652;2023-02-01T13:53:21;3.53;94.47
69162;DHT22;56269;51.738;21.652;2023-02-01T13:55:57;3.56;94.64
69162;DHT22;56269;51.738;21.652;2023-02-01T13:58:39;3.51;94.77
69162;DHT22;56269;51.738;21.652;2023-02-01T14:04:02;3.63;93.67
69162;DHT22;56269;51.738;21.652;2023-02-01T14:11:38;3.67;93.30
69162;DHT22;56269;51.738;21.652;2023-02-01T14:19:32;3.91;91.44
69162;DHT22;56269;51.738;21.652;2023-02-01T14:22:01;3.91;91.82
69162;DHT22;56269;51.738;21.652;2023-02-01T14:24:51;3.97;91.77
69162;DHT22;56269;51.738;21.652;2023-02-01T14:27:23;3.97;91.85
69162;DHT22;56269;51.738;21.652;2023-02-01T14:29:56;3.98;91.95
69162;DHT22;56269;51.738;21.652;2023-02-01T14:32:26;3.99;91.58
69162;DHT22;56269;51.738;21.652;2023-02-01T14:34:59;4.02;91.43
69162;DHT22;56269;51.738;21.652;2023-02-01T14:37:32;4.02;91.47
69162;DHT22;56269;51.738;21.652;2023-02-01T14:40:16;4.11;90.84
69162;DHT22;56269;51.738;21.652;2023-02-01T14:42:49;4.21;90.18
69162;DHT22;56269;51.738;21.652;2023-02-01T14:55:48;4.22;89.12
69162;DHT22;56269;51.738;21.652;2023-02-01T15:01:02;4.15;89.24
69162;DHT22;56269;51.738;21.652;2023-02-01T15:09:18;4.09;88.54
69162;DHT22;56269;51.738;21.652;2023-02-01T15:14:27;4.06;88.92
69162;DHT22;56269;51.738;21.652;2023-02-01T15:16:54;4.06;88.35
69162;DHT22;56269;51.738;21.652;2023-02-01T15:19:25;4.02;88.87
69162;DHT22;56269;51.738;21.652;2023-02-01T15:21:56;4.04;88.24
69162;DHT22;56269;51.738;21.652;2023-02-01T15:24:30;4.02;88.64
69162;DHT22;56269;51.738;21.652;2023-02-01T15:27:03;4.04;88.32
69162;DHT22;56269;51.738;21.652;2023-02-01T15:29:29;4.01;88.68
69162;DHT22;56269;51.738;21.652;2023-02-01T15:31:59;3.95;88.70
69162;DHT22;56269;51.738;21.652;2023-02-01T15:34:47;3.97;89.00
69162;DHT22;56269;51.738;21.652;2023-02-01T15:37:15;3.88;89.43
69162;DHT22;56269;51.738;21.652;2023-02-01T15:40:05;3.87;89.38
69162;DHT22;56269;51.738;21.652;2023-02-01T15:42:34;3.77;89.49
69162;DHT22;56269;51.738;21.652;2023-02-01T15:45:00;3.73;90.00
69162;DHT22;56269;51.738;21.652;2023-02-01T15:47:28;3.54;90.90
69162;DHT22;56269;51.738;21.652;2023-02-01T15:49:58;3.59;90.51
69162;DHT22;56269;51.738;21.652;2023-02-01T15:52:35;3.59;90.48
69162;DHT22;56269;51.738;21.652;2023-02-01T15:55:08;3.59;90.93
69162;DHT22;56269;51.738;21.652;2023-02-01T15:57:43;3.60;90.69
69162;DHT22;56269;51.738;21.652;2023-02-01T16:00:24;3.64;90.70
69162;DHT22;56269;51.738;21.652;2023-02-01T16:02:58;3.66;90.44
69162;DHT22;56269;51.738;21.652;2023-02-01T16:05:35;3.69;90.13
69162;DHT22;56269;51.738;21.652;2023-02-01T16:08:21;3.60;90.84
69162;DHT22;56269;51.738;21.652;2023-02-01T16:10:50;3.63;90.83
69162;DHT22;56269;51.738;21.652;2023-02-01T16:13:18;3.59;91.02
69162;DHT22;56269;51.738;21.652;2023-02-01T16:15:46;3.54;91.47
69162;DHT22;56269;51.738;21.652;2023-02-01T16:18:13;3.54;91.55
69162;DHT22;56269;51.738;21.652;2023-02-01T16:20:41;3.43;92.76
69162;DHT22;56269;51.738;21.652;2023-02-01T16:23:09;3.39;92.93
69162;DHT22;56269;51.738;21.652;2023-02-01T16:25:37;3.44;92.91
69162;DHT22;56269;51.738;21.652;2023-02-01T16:28:04;3.43;93.23
69162;DHT22;56269;51.738;21.652;2023-02-01T16:30:34;3.39;93.62
69162;DHT22;56269;51.738;21.652;2023-02-01T16:33:02;3.33;94.21
69162;DHT22;56269;51.738;21.652;2023-02-01T16:35:31;3.40;93.95
69162;DHT22;56269;51.738;21.652;2023-02-01T16:38:08;3.33;94.43
69162;DHT22;56269;51.738;21.652;2023-02-01T16:40:42;3.22;94.70
69162;DHT22;56269;51.738;21.652;2023-02-01T16:43:16;3.09;95.50
69162;DHT22;56269;51.738;21.652;2023-02-01T16:45:59;2.99;95.79
69162;DHT22;56269;51.738;21.652;2023-02-01T16:48:28;2.92;96.07
69162;DHT22;56269;51.738;21.652;2023-02-01T16:50:57;2.78;96.46
69162;DHT22;56269;51.738;21.652;2023-02-01T16:53:28;2.72;96.96
69162;DHT22;56269;51.738;21.652;2023-02-01T16:55:55;2.74;96.94
69162;DHT22;56269;51.738;21.652;2023-02-01T16:58:24;2.64;97.08
69162;DHT22;56269;51.738;21.652;2023-02-01T17:00:51;2.64;97.33
69162;DHT22;56269;51.738;21.652;2023-02-01T17:03:20;2.62;97.38
69162;DHT22;56269;51.738;21.652;2023-02-01T17:05:52;2.59;97.64
69162;DHT22;56269;51.738;21.652;2023-02-01T17:08:25;2.64;97.71
69162;DHT22;56269;51.738;21.652;2023-02-01T17:10:54;2.62;97.88
69162;DHT22;56269;51.738;21.652;2023-02-01T17:13:24;2.74;97.61
69162;DHT22;56269;51.738;21.652;2023-02-01T17:16:01;2.74;97.61
69162;DHT22;56269;51.738;21.652;2023-02-01T17:18:44;2.75;97.64
69162;DHT22;56269;51.738;21.652;2023-02-01T17:21:13;2.69;97.95
69162;DHT22;56269;51.738;21.652;2023-02-01T17:23:43;2.71;97.90
69162;DHT22;56269;51.738;21.652;2023-02-01T17:26:11;2.74;97.90
69162;DHT22;56269;51.738;21.652;2023-02-01T17:28:38;2.68;98.11
69162;DHT22;56269;51.738;21.652;2023-02-01T17:31:04;2.69;97.91
69162;DHT22;56269;51.738;21.652;2023-02-01T17:33:34;2.68;98.12
69162;DHT22;56269;51.738;21.652;2023-02-01T17:36:01;2.69;97.85
69162;DHT22;56269;51.738;21.652;2023-02-01T17:38:29;2.66;97.97
69162;DHT22;56269;51.738;21.652;2023-02-01T17:40:56;2.72;97.69
69162;DHT22;56269;51.738;21.652;2023-02-01T17:43:24;2.71;97.85
69162;DHT22;56269;51.738;21.652;2023-02-01T17:45:58;2.71;97.92
69162;DHT22;56269;51.738;21.652;2023-02-01T17:48:27;2.69;97.93
69162;DHT22;56269;51.738;21.652;2023-02-01T17:50:53;2.65;98.13
69162;DHT22;56269;51.738;21.652;2023-02-01T17:53:25;2.68;98.02
69162;DHT22;56269;51.738;21.652;2023-02-01T17:55:52;2.69;97.86
69162;DHT22;56269;51.738;21.652;2023-02-01T17:58:19;2.65;98.03
69162;DHT22;56269;51.738;21.652;2023-02-01T18:00:47;2.71;97.88
69162;DHT22;56269;51.738;21.652;2023-02-01T18:03:29;2.68;97.58
69162;DHT22;56269;51.738;21.652;2023-02-01T18:05:57;2.77;97.40
69162;DHT22;56269;51.738;21.652;2023-02-01T18:08:26;2.71;97.50
69162;DHT22;56269;51.738;21.652;2023-02-01T18:10:56;2.72;97.39
69162;DHT22;56269;51.738;21.652;2023-02-01T18:13:28;2.74;97.05
69162;DHT22;56269;51.738;21.652;2023-02-01T18:15:57;2.75;97.14
69162;DHT22;56269;51.738;21.652;2023-02-01T18:18:25;2.79;96.88